Photo de Laille
Rennes
nuageux
Metar : 2018/08/19 19:00 LFRN 191900Z AUTO 34004KT 9999 BKN044 BKN054 24/17 Q1022 NOSIG
Couverture nuageuse : Mostly Cloudy 4400 ft Mostly Cloudy 5400 ft
Pression de 30.18 inHg (1022 hPa)
Humidité : 65%
Température : 75°F (24°C)
Vent de NNW at 5 mph (7 km/h)
Visibilité : 6 miles (10 km)
Nantes
Ciel dégagé
Metar : 2018/08/19 19:00 LFRS 191900Z AUTO 27006KT 230V300 CAVOK 20/16 Q1023 NOSIG
Couverture nuageuse :
Traduc : Partly cloudy 700 ft
Pression de 30.21 inHg (1023 hPa)
Humidité : 78%
Température : 68°F (20°C)
Point de rosée : 61°F (16°C)
Vent de W at 7 mph (11 km/h)
Visibilité : greater than 7 miles (10 km)
Lannion
Brume
Metar : 2018/08/19 19:00 LFRO 191900Z AUTO 26011KT 2000 BR VV/// 18/18 Q1023 BECMG DZ OVC002
Couverture nuageuse :
Traduc : Partly cloudy 700 ft
Pression de 30.21 inHg (1023 hPa)
Humidité : 100%
Température : 64°F (18°C)
Point de rosée : 64°F (18°C)
Vent de W at 13 mph (20 km/h)
Visibilité : 1 mile (2 km)
Dinard
couvert
Metar : 2018/08/19 19:00 LFRD 191900Z AUTO 30005KT 9999 OVC025 20/17 Q1023 BECMG BKN008
Couverture nuageuse : Overcast 2500 ft
Traduc : Partly cloudy 700 ft
Pression de 30.21 inHg (1023 hPa)
Humidité : 83%
Température : 68°F (20°C)
Point de rosée : 63°F (17°C)
Vent de WNW at 6 mph (9 km/h)
Visibilité : 6 miles (10 km)
Brest

Metar : 2018/08/19 19:00 LFRB 191900Z AUTO 27004KT 240V310 1000 0800 R25/1400D R07/1400U BCFG VV/// 18/18 Q1024 BECMG 2000 DZ OVC003
Couverture nuageuse :
Traduc : Partly cloudy 700 ft
Pression de
Humidité :
Température :
Point de rosée :
Vent de W at 5 mph (7 km/h)
Visibilité : 1 mile (1 km)
Quimper
couvert
Metar : 2018/08/19 19:00 LFRQ 191900Z AUTO 28005KT 9999 OVC005 19/17 Q1024 BECMG 3000 DZ
Couverture nuageuse : Overcast 500 ft
Traduc : Partly cloudy 700 ft
Pression de 30.24 inHg (1024 hPa)
Humidité : 88%
Température : 66°F (19°C)
Point de rosée : 63°F (17°C)
Vent de W at 6 mph (9 km/h)
Visibilité : 6 miles (10 km)
St Nazaire
Ciel dégagé
Metar : 2018/08/19 19:00 LFRZ 191900Z AUTO 27008KT CAVOK 20/17 Q1023 NOSIG
Couverture nuageuse :
Traduc : Partly cloudy 700 ft
Pression de 30.21 inHg (1023 hPa)
Humidité : 83%
Température : 68°F (20°C)
Point de rosée : 63°F (17°C)
Vent de W at 9 mph (15 km/h)
Visibilité : greater than 7 miles (10 km)
St Brieuc
couvert
Metar : 2018/08/19 19:00 LFRT 191900Z AUTO 28009KT 9999 BKN016 OVC046 21/18 Q1023
Couverture nuageuse : Mostly Cloudy 1600 ft Overcast 4600 ft
Traduc : Partly cloudy 700 ft
Pression de 30.21 inHg (1023 hPa)
Humidité : 83%
Température : 70°F (21°C)
Point de rosée : 64°F (18°C)
Vent de W at 10 mph (17 km/h)
Visibilité : 6 miles (10 km)
Lorient
nuageux
Metar : 2018/08/19 19:00 LFRH 191900Z AUTO 20006KT 140V270 9999 FEW016 BKN034 BKN045 19/19 Q1024 BECMG BKN007 OVC012
Couverture nuageuse : Few Clouds 1600 ft Mostly Cloudy 3400 ft Mostly Cloudy 4500 ft
Traduc : Partly cloudy 700 ft
Pression de 30.24 inHg (1024 hPa)
Humidité : 100%
Température : 66°F (19°C)
Point de rosée : 66°F (19°C)
Vent de SSW at 7 mph (11 km/h)
Visibilité : 6 miles (10 km)
Vannes-Meucon
nuageux
Metar : 2018/08/19 19:00 LFRV 191900Z AUTO 27005KT 9999 BKN032 21/18 Q1023
Couverture nuageuse : Mostly Cloudy 3200 ft
Traduc : Partly cloudy 700 ft
Pression de 30.21 inHg (1023 hPa)
Humidité : 83%
Température : 70°F (21°C)
Point de rosée : 64°F (18°C)
Vent de W at 6 mph (9 km/h)
Visibilité : 6 miles (10 km)

 


   Weather Underground PWS IBRETAGN39      Weather Underground PWS IBRETAGN39Retour Météo-Laillé adhérent de Météo-Bretagne et d'Infoclimat. Données mises à jour en temps réel via Météolink Climatologie réalisée sous Wswin et GraphWeather.

Affichage prévisions météo de WeatherUnderground via script PHP de Saratoga.

Copyright 2012-2018